Time;durP1;ratioP1;P1;durP2;ratioP2;P2;SDS_P1;SDS_P2;PMS_P1;PMS_P2;Temp;Humidity;BMP_temperature;BMP_pressure;BME280_temperature;BME280_humidity;BME280_pressure;Samples;Min_cycle;Max_cycle;Signal;HPM_P1;HPM_P2
2022/07/24 00:00:08;;;;;;;2.53;1.30;;;;;;;21.61;44.05;101637.63;5000663;28;98128;-70
2022/07/24 00:02:34;;;;;;;4.45;0.90;;;;;;;21.54;43.72;101625.56;5005020;28;98620;-71
2022/07/24 00:05:01;;;;;;;1.23;0.90;;;;;;;21.64;42.99;101631.19;5012952;28;102571;-72
2022/07/24 00:07:27;;;;;;;2.30;0.82;;;;;;;21.61;42.71;101626.88;5013772;28;99165;-67
2022/07/24 00:09:54;;;;;;;4.07;1.08;;;;;;;21.56;43.87;101629.03;5014100;28;97165;-72
2022/07/24 00:12:21;;;;;;;3.55;1.20;;;;;;;21.64;42.61;101631.19;5013135;28;97033;-71
2022/07/24 00:14:48;;;;;;;5.63;1.10;;;;;;;21.66;42.51;101632.78;5020150;28;99382;-71
2022/07/24 00:17:15;;;;;;;3.75;0.93;;;;;;;21.60;42.89;101635.91;5011719;28;99302;-69
2022/07/24 00:19:42;;;;;;;2.00;1.08;;;;;;;21.54;42.63;101630.94;5009725;28;96851;-70
2022/07/24 00:22:08;;;;;;;1.98;1.00;;;;;;;21.30;42.94;101624.53;5011463;28;96904;-70
2022/07/24 00:24:35;;;;;;;1.00;0.82;;;;;;;21.48;42.75;101634.91;5013762;28;98518;-70
2022/07/24 00:27:02;;;;;;;1.27;1.05;;;;;;;21.51;42.81;101630.28;5012632;28;98952;-72
2022/07/24 00:29:28;;;;;;;1.55;0.90;;;;;;;21.41;42.60;101632.72;5015596;28;97026;-72
2022/07/24 00:31:55;;;;;;;4.47;1.20;;;;;;;21.11;43.34;101637.41;5013397;28;97238;-71
2022/07/24 00:34:23;;;;;;;5.40;1.20;;;;;;;20.93;43.94;101636.81;5014555;28;97666;-68
2022/07/24 00:36:49;;;;;;;2.42;0.80;;;;;;;20.97;43.63;101643.69;5012298;28;97924;-67
2022/07/24 00:39:16;;;;;;;1.92;1.00;;;;;;;20.99;43.88;101639.94;5010071;28;96778;-67
2022/07/24 00:41:42;;;;;;;2.53;1.00;;;;;;;20.90;43.98;101645.91;5015733;28;97453;-67
2022/07/24 00:44:11;;;;;;;3.30;1.08;;;;;;;21.01;43.68;101638.00;5011556;28;98742;-67
2022/07/24 00:46:39;;;;;;;1.10;1.00;;;;;;;21.03;43.84;101646.84;5009260;28;99696;-66
2022/07/24 00:49:07;;;;;;;5.03;1.15;;;;;;;20.86;43.99;101644.38;5012194;28;96736;-66
2022/07/24 00:51:36;;;;;;;1.60;0.90;;;;;;;20.91;43.78;101653.00;5010213;28;97710;-67
2022/07/24 00:54:04;;;;;;;0.85;0.80;;;;;;;21.02;43.92;101647.78;5009630;28;98867;-66
2022/07/24 00:56:30;;;;;;;1.67;0.93;;;;;;;21.04;44.26;101640.50;5007041;28;98880;-67
2022/07/24 00:58:57;;;;;;;2.88;1.25;;;;;;;21.07;44.86;101653.72;5013344;28;97063;-66
2022/07/24 01:01:23;;;;;;;1.20;0.82;;;;;;;21.20;43.86;101647.63;5012262;28;97093;-67
2022/07/24 01:03:50;;;;;;;12.30;1.52;;;;;;;21.07;44.53;101660.91;5010435;28;98926;-67
2022/07/24 01:06:16;;;;;;;2.55;1.05;;;;;;;21.17;44.36;101659.41;5010782;28;97583;-66
2022/07/24 01:08:44;;;;;;;2.03;1.00;;;;;;;21.25;44.61;101653.53;5007894;28;96898;-66
2022/07/24 01:11:11;;;;;;;1.77;0.77;;;;;;;20.99;44.49;101658.75;5014338;28;98700;-66
2022/07/24 01:13:39;;;;;;;1.67;0.80;;;;;;;21.02;44.70;101653.16;5012326;28;99321;-66
2022/07/24 01:16:06;;;;;;;2.72;0.90;;;;;;;21.02;44.34;101655.84;5008737;28;98728;-67
2022/07/24 01:18:33;;;;;;;1.90;1.13;;;;;;;20.91;45.51;101658.38;5009005;28;97588;-67
2022/07/24 01:21:00;;;;;;;2.08;1.13;;;;;;;20.88;45.43;101663.94;5012492;28;96815;-67
2022/07/24 01:23:27;;;;;;;4.75;0.90;;;;;;;20.82;45.77;101656.28;5011911;28;98911;-66
2022/07/24 01:25:53;;;;;;;1.98;1.00;;;;;;;20.80;45.88;101652.84;5008222;28;99297;-67
2022/07/24 01:28:20;;;;;;;1.77;1.00;;;;;;;20.81;45.93;101657.22;5011194;28;96819;-66
2022/07/24 01:30:47;;;;;;;2.08;0.85;;;;;;;20.85;44.92;101656.09;5011860;28;97502;-66
2022/07/24 01:33:14;;;;;;;2.67;1.00;;;;;;;20.42;45.24;101657.91;5009666;28;100405;-67
2022/07/24 01:35:40;;;;;;;2.00;0.85;;;;;;;20.67;45.55;101651.91;5010741;28;99247;-67
2022/07/24 01:38:08;;;;;;;2.65;1.00;;;;;;;20.82;45.55;101656.28;5009461;28;96841;-67
2022/07/24 01:40:35;;;;;;;3.20;0.95;;;;;;;20.89;45.25;101662.97;5011561;28;96925;-68
2022/07/24 01:43:02;;;;;;;2.50;1.20;;;;;;;20.74;46.28;101657.75;5007581;28;97785;-67
2022/07/24 01:45:28;;;;;;;1.73;0.85;;;;;;;20.57;46.14;101661.47;5011928;28;99181;-67
2022/07/24 01:47:54;;;;;;;1.63;0.80;;;;;;;20.58;46.56;101660.53;5010682;28;98576;-66
2022/07/24 01:50:21;;;;;;;2.00;1.05;;;;;;;20.68;45.81;101661.66;5011363;28;97513;-67
2022/07/24 01:52:48;;;;;;;2.83;1.38;;;;;;;20.46;45.61;101664.84;5007585;28;98895;-67
2022/07/24 01:55:16;;;;;;;5.10;1.10;;;;;;;20.50;46.15;101671.72;5010964;28;100152;-67
2022/07/24 01:57:42;;;;;;;1.75;1.30;;;;;;;20.70;45.02;101665.13;5011504;28;97538;-66
2022/07/24 02:00:11;;;;;;;3.28;1.48;;;;;;;20.52;45.38;101671.66;5008792;28;97450;-68
2022/07/24 02:02:38;;;;;;;3.70;1.75;;;;;;;20.57;45.78;101673.06;5012341;28;98009;-68
2022/07/24 02:05:05;;;;;;;3.47;1.50;;;;;;;20.69;44.93;101676.81;5007915;28;98935;-67
2022/07/24 02:07:31;;;;;;;3.40;1.50;;;;;;;20.60;45.64;101661.28;5011229;28;97045;-67
2022/07/24 02:09:58;;;;;;;4.68;1.48;;;;;;;20.48;45.60;101672.81;5009889;28;97036;-67
2022/07/24 02:12:25;;;;;;;5.38;1.35;;;;;;;20.38;46.10;101663.59;5010197;28;99240;-67
2022/07/24 02:14:52;;;;;;;6.20;1.50;;;;;;;20.43;45.99;101661.47;5007623;28;98985;-66
2022/07/24 02:17:18;;;;;;;2.15;1.20;;;;;;;20.49;45.13;101663.78;5010536;28;97114;-66
2022/07/24 02:19:44;;;;;;;5.38;1.50;;;;;;;20.49;46.05;101666.44;5012141;28;97216;-66
2022/07/24 02:22:11;;;;;;;2.65;1.45;;;;;;;20.43;45.64;101669.53;5009037;28;99215;-67
2022/07/24 02:24:38;;;;;;;5.25;1.85;;;;;;;20.24;46.08;101665.25;5010881;28;97592;-71
2022/07/24 02:27:04;;;;;;;4.43;1.52;;;;;;;20.60;45.56;101655.94;5006783;28;97726;-72
2022/07/24 02:29:32;;;;;;;3.83;1.60;;;;;;;20.51;46.16;101661.84;5011090;28;96800;-71
2022/07/24 02:31:58;;;;;;;2.58;1.45;;;;;;;20.45;46.86;101656.88;5009820;28;97709;-71
2022/07/24 02:34:25;;;;;;;3.25;1.80;;;;;;;20.54;46.00;101662.56;5011430;28;99270;-72
2022/07/24 02:36:51;;;;;;;3.55;1.50;;;;;;;20.52;46.04;101667.16;5010427;28;97382;-72
2022/07/24 02:39:18;;;;;;;3.72;1.63;;;;;;;20.55;46.36;101660.69;5011960;28;97014;-72
2022/07/24 02:41:44;;;;;;;2.70;1.50;;;;;;;20.50;45.81;101660.13;5010179;28;98942;-74
2022/07/24 02:44:10;;;;;;;3.20;1.30;;;;;;;20.28;46.10;101658.72;5011289;28;98851;-71
2022/07/24 02:46:38;;;;;;;5.88;2.78;;;;;;;20.36;46.88;101660.13;5009278;28;97233;-71
2022/07/24 02:49:04;;;;;;;3.40;1.50;;;;;;;20.40;46.22;101672.41;5010874;28;96865;-72
2022/07/24 02:51:31;;;;;;;4.20;1.38;;;;;;;20.40;45.86;101672.41;5008960;28;99155;-72
2022/07/24 02:53:57;;;;;;;5.68;1.58;;;;;;;20.38;46.76;101675.19;5008266;28;98745;-72
2022/07/24 02:56:23;;;;;;;3.97;1.50;;;;;;;20.31;46.44;101681.84;5011054;28;97380;-71
2022/07/24 02:58:50;;;;;;;3.72;1.65;;;;;;;20.37;46.41;101672.59;5010276;28;98037;-72
2022/07/24 03:01:16;;;;;;;1.15;1.05;;;;;;;20.35;46.08;101675.34;5014772;28;99021;-72
2022/07/24 03:03:44;;;;;;;3.80;1.45;;;;;;;20.39;46.04;101678.72;5009965;28;98879;-72
2022/07/24 03:06:10;;;;;;;2.78;1.15;;;;;;;20.36;45.92;101676.22;5008898;28;96924;-72
2022/07/24 03:08:37;;;;;;;2.00;1.40;;;;;;;20.40;45.86;101675.97;5009402;28;97040;-72
2022/07/24 03:11:03;;;;;;;3.10;1.30;;;;;;;20.40;45.67;101677.78;5007356;28;98939;-72
2022/07/24 03:13:29;;;;;;;3.78;1.13;;;;;;;20.32;45.97;101690.78;5007997;28;99064;-71
2022/07/24 03:15:56;;;;;;;3.35;1.55;;;;;;;20.32;46.51;101691.63;5007064;28;96936;-72
2022/07/24 03:18:22;;;;;;;3.72;1.30;;;;;;;20.25;46.73;101691.16;5011267;28;96965;-72
2022/07/24 03:20:50;;;;;;;2.75;1.17;;;;;;;20.26;47.65;101692.88;5011062;28;99203;-72
2022/07/24 03:23:17;;;;;;;4.30;1.73;;;;;;;20.19;47.66;101693.34;5011688;28;99051;-72
2022/07/24 03:25:44;;;;;;;4.93;1.60;;;;;;;20.16;47.68;101704.25;5012180;28;97584;-72
2022/07/24 03:28:10;;;;;;;1.65;1.30;;;;;;;20.30;46.57;101698.91;5010481;28;96779;-71
2022/07/24 03:30:37;;;;;;;2.08;1.30;;;;;;;20.06;47.05;101703.94;5005601;28;99207;-71
2022/07/24 03:33:03;;;;;;;4.50;1.48;;;;;;;20.35;46.14;101706.72;5013886;28;101172;-70
2022/07/24 03:35:29;;;;;;;1.88;1.45;;;;;;;20.28;47.31;101707.03;5008609;28;97401;-71
2022/07/24 03:37:57;;;;;;;5.28;1.55;;;;;;;20.19;47.54;101699.56;5007773;28;97968;-72
2022/07/24 03:40:23;;;;;;;2.03;1.13;;;;;;;20.26;46.96;101698.25;5003583;28;101522;-72
2022/07/24 03:42:50;;;;;;;2.70;1.38;;;;;;;20.07;46.63;101702.13;5006811;28;99119;-72
2022/07/24 03:45:16;;;;;;;1.35;1.20;;;;;;;20.15;47.25;101708.75;5008107;28;97031;-71
2022/07/24 03:47:42;;;;;;;1.80;1.00;;;;;;;20.20;46.93;101714.72;5009407;28;97365;-71
2022/07/24 03:50:09;;;;;;;3.58;1.33;;;;;;;20.25;47.56;101719.81;5009362;28;99172;-71
2022/07/24 03:52:36;;;;;;;4.13;1.70;;;;;;;20.08;48.87;101719.97;5008214;28;97713;-70
2022/07/24 03:55:04;;;;;;;6.38;1.15;;;;;;;20.22;48.20;101728.88;5009730;28;97299;-72
2022/07/24 03:57:30;;;;;;;2.88;1.05;;;;;;;20.20;47.04;101720.09;5007290;28;97046;-72
2022/07/24 03:59:57;;;;;;;3.35;1.10;;;;;;;19.92;46.43;101730.72;5010014;28;98959;-72
2022/07/24 04:02:23;;;;;;;3.88;0.98;;;;;;;19.85;46.82;101719.50;5006531;28;98766;-71
2022/07/24 04:04:50;;;;;;;1.20;0.68;;;;;;;19.84;46.97;101723.13;5007328;28;97170;-71
2022/07/24 04:07:16;;;;;;;5.78;1.23;;;;;;;20.19;46.71;101728.22;5005592;28;97120;-72
2022/07/24 04:09:43;;;;;;;5.18;1.05;;;;;;;20.30;46.06;101723.94;5012905;28;99121;-71
2022/07/24 04:12:10;;;;;;;1.50;0.82;;;;;;;20.19;45.83;101717.50;5008180;28;97705;-72
2022/07/24 04:14:37;;;;;;;3.75;0.85;;;;;;;20.13;45.45;101723.22;5011683;28;97170;-71
2022/07/24 04:17:03;;;;;;;2.33;0.85;;;;;;;19.98;45.83;101726.81;5005482;28;97892;-71
2022/07/24 04:19:30;;;;;;;1.80;0.70;;;;;;;20.44;45.62;101722.25;5014519;28;99098;-71
2022/07/24 04:21:56;;;;;;;1.58;0.60;;;;;;;20.56;45.04;101721.50;5007804;28;98988;-72
2022/07/24 04:24:23;;;;;;;2.65;0.98;;;;;;;20.46;45.31;101725.72;5007517;28;96877;-72
2022/07/24 04:26:49;;;;;;;7.07;1.50;;;;;;;19.86;45.63;101731.09;5006269;28;97452;-72
2022/07/24 04:29:17;;;;;;;0.98;0.80;;;;;;;19.62;46.64;101728.03;5002829;28;98745;-71
2022/07/24 04:31:45;;;;;;;1.65;0.70;;;;;;;19.94;46.26;101723.47;5008702;28;98842;-71
2022/07/24 04:34:11;;;;;;;1.38;0.60;;;;;;;20.36;45.24;101725.41;5004787;28;96959;-71
2022/07/24 04:36:38;;;;;;;1.60;0.60;;;;;;;20.48;45.16;101719.28;5001521;28;97332;-71
2022/07/24 04:39:04;;;;;;;4.10;1.00;;;;;;;20.88;44.33;101725.72;5005082;28;99521;-72
2022/07/24 04:41:31;;;;;;;2.05;0.80;;;;;;;20.97;43.84;101727.84;5007927;28;98864;-71
2022/07/24 04:43:57;;;;;;;2.53;0.90;;;;;;;20.74;44.32;101725.75;5010531;28;97368;-73
2022/07/24 04:46:25;;;;;;;4.35;1.00;;;;;;;20.95;43.67;101740.50;5003137;28;98636;-72
2022/07/24 04:48:51;;;;;;;3.47;0.90;;;;;;;21.05;43.36;101741.66;5009046;28;99554;-72
2022/07/24 04:51:17;;;;;;;1.83;0.93;;;;;;;20.68;43.85;101740.41;5008399;28;98056;-72
2022/07/24 04:53:44;;;;;;;4.78;1.10;;;;;;;21.02;43.51;101741.84;5010235;28;97238;-72
2022/07/24 04:56:10;;;;;;;3.45;0.80;;;;;;;21.02;43.60;101746.34;5010040;28;97167;-71
2022/07/24 04:58:36;;;;;;;3.20;1.00;;;;;;;21.00;43.90;101738.38;5014546;28;99506;-72
2022/07/24 05:01:03;;;;;;;2.00;0.63;;;;;;;21.32;42.97;101736.38;5011743;28;99211;-72
2022/07/24 05:03:31;;;;;;;3.05;0.90;;;;;;;21.45;42.63;101734.63;5012727;28;96779;-72
2022/07/24 05:05:57;;;;;;;2.67;1.30;;;;;;;21.58;42.74;101733.81;5005357;28;96810;-72
2022/07/24 05:08:23;;;;;;;1.65;0.75;;;;;;;21.42;42.68;101733.94;5009538;28;99304;-71
2022/07/24 05:10:50;;;;;;;2.63;0.80;;;;;;;21.28;43.24;101739.34;5012569;28;98958;-73
2022/07/24 05:13:17;;;;;;;3.75;0.75;;;;;;;21.33;43.13;101738.06;5010614;28;96901;-72
2022/07/24 05:15:43;;;;;;;1.25;0.70;;;;;;;21.67;42.27;101744.81;5011794;28;97230;-72
2022/07/24 05:18:10;;;;;;;1.30;0.73;;;;;;;21.86;42.12;101734.53;5009477;28;99039;-72
2022/07/24 05:20:38;;;;;;;2.28;0.82;;;;;;;22.92;40.26;101736.22;5014239;28;99247;-71
2022/07/24 05:23:04;;;;;;;1.20;0.73;;;;;;;23.35;39.16;101724.06;5010482;28;96808;-72
2022/07/24 05:25:30;;;;;;;1.60;0.65;;;;;;;23.28;38.30;101730.00;5011654;28;97443;-71
2022/07/24 05:27:57;;;;;;;4.10;0.82;;;;;;;23.25;38.77;101730.22;5007521;28;99109;-70
2022/07/24 05:30:23;;;;;;;2.83;0.60;;;;;;;23.25;38.25;101732.91;5012996;28;99140;-70
2022/07/24 05:32:49;;;;;;;4.18;1.02;;;;;;;22.87;39.01;101744.63;5009694;28;97723;-71
2022/07/24 05:35:16;;;;;;;3.53;0.88;;;;;;;22.82;38.98;101738.72;5013545;28;97064;-71
2022/07/24 05:37:43;;;;;;;1.42;0.60;;;;;;;22.35;39.33;101743.84;5009362;28;100150;-72
2022/07/24 05:40:11;;;;;;;1.52;0.70;;;;;;;22.43;39.53;101731.56;5013274;28;99315;-70
2022/07/24 05:42:37;;;;;;;3.47;0.88;;;;;;;22.30;39.72;101733.41;5009764;28;97736;-72
2022/07/24 05:45:05;;;;;;;2.58;0.90;;;;;;;22.42;39.84;101731.69;5012476;28;96822;-71
2022/07/24 05:47:36;;;;;;;1.23;0.90;;;;;;;22.37;39.83;101734.69;5006416;28;101640;-72
2022/07/24 05:50:02;;;;;;;1.90;0.70;;;;;;;22.47;39.91;101725.00;5012535;28;99422;-71
2022/07/24 05:52:29;;;;;;;1.25;0.50;;;;;;;22.77;39.20;101732.81;5005901;28;98710;-71
2022/07/24 05:54:56;;;;;;;2.08;0.75;;;;;;;23.24;38.32;101725.78;5013166;28;97795;-71
2022/07/24 05:57:23;;;;;;;2.00;0.90;;;;;;;23.34;37.93;101726.84;5009551;28;102082;-71
2022/07/24 05:59:49;;;;;;;3.20;0.70;;;;;;;23.61;37.27;101723.97;5009909;28;99213;-71
2022/07/24 06:02:15;;;;;;;0.60;0.60;;;;;;;23.48;37.55;101731.28;5010972;28;97315;-68
2022/07/24 06:04:43;;;;;;;2.40;0.68;;;;;;;22.60;39.51;101735.78;5009772;28;97234;-68
2022/07/24 06:07:09;;;;;;;4.30;0.75;;;;;;;23.07;38.63;101735.13;5006530;28;98969;-68
2022/07/24 06:09:36;;;;;;;1.05;0.65;;;;;;;23.48;38.02;101729.44;5009073;28;98888;-72
2022/07/24 06:12:04;;;;;;;4.30;0.93;;;;;;;23.55;37.63;101736.09;5009073;28;98438;-72
2022/07/24 06:14:31;;;;;;;0.95;0.60;;;;;;;23.54;37.51;101730.81;5008239;28;97149;-67
2022/07/24 06:16:58;;;;;;;0.82;0.60;;;;;;;23.65;37.44;101737.13;5007826;28;99102;-70
2022/07/24 06:19:24;;;;;;;3.05;1.67;;;;;;;23.52;37.75;101740.84;5006462;28;98878;-70
2022/07/24 06:21:51;;;;;;;2.25;0.60;;;;;;;23.42;37.77;101732.56;5010405;28;98173;-71
2022/07/24 06:24:18;;;;;;;3.20;0.93;;;;;;;23.44;38.18;101742.22;5012506;28;96974;-70
2022/07/24 06:26:45;;;;;;;4.15;0.80;;;;;;;23.89;37.07;101737.13;5005956;28;98552;-70
2022/07/24 06:29:12;;;;;;;1.33;0.65;;;;;;;24.06;36.51;101741.22;5009990;28;99142;-69
2022/07/24 06:31:39;;;;;;;2.25;0.80;;;;;;;23.47;37.75;101733.09;5007208;28;98870;-70
2022/07/24 06:34:05;;;;;;;4.65;0.60;;;;;;;23.95;37.02;101728.56;5006441;28;96802;-72
2022/07/24 06:36:31;;;;;;;2.80;0.65;;;;;;;23.77;37.19;101724.53;5008822;28;98998;-72
2022/07/24 06:38:58;;;;;;;3.20;0.93;;;;;;;23.22;37.74;101728.63;5008549;28;98899;-69
2022/07/24 06:41:24;;;;;;;5.72;0.75;;;;;;;23.80;37.18;101729.72;5006083;28;96914;-69
2022/07/24 06:43:50;;;;;;;2.05;0.77;;;;;;;23.49;37.95;101736.56;5010555;28;97325;-71
2022/07/24 06:46:18;;;;;;;2.28;0.90;;;;;;;23.69;37.54;101732.38;5010644;28;99744;-71
2022/07/24 06:48:45;;;;;;;5.28;1.08;;;;;;;23.68;37.70;101730.66;5008473;28;102045;-71
2022/07/24 06:51:11;;;;;;;1.27;0.63;;;;;;;23.66;37.77;101737.97;5010293;28;96904;-70
2022/07/24 06:53:40;;;;;;;2.33;0.80;;;;;;;23.93;37.38;101730.50;5009206;28;96995;-71
2022/07/24 06:56:07;;;;;;;1.65;0.47;;;;;;;24.41;36.85;101722.34;5006340;28;99143;-71
2022/07/24 06:58:34;;;;;;;2.70;1.13;;;;;;;24.79;35.34;101733.69;5006452;28;101300;-70
2022/07/24 07:01:00;;;;;;;3.58;1.13;;;;;;;25.12;35.14;101723.88;5014139;28;96730;-71
2022/07/24 07:03:28;;;;;;;2.00;0.70;;;;;;;25.27;34.82;101737.00;5009295;28;97345;-70
2022/07/24 07:05:54;;;;;;;4.03;0.88;;;;;;;25.36;34.55;101732.69;5008777;28;97944;-69
2022/07/24 07:08:21;;;;;;;3.67;0.77;;;;;;;25.24;35.06;101731.00;5008103;28;99224;-68
2022/07/24 07:10:47;;;;;;;1.10;0.63;;;;;;;24.92;35.14;101739.00;5010668;28;97477;-71
2022/07/24 07:13:14;;;;;;;3.00;0.90;;;;;;;24.32;36.30;101739.25;5007397;28;96905;-71
2022/07/24 07:15:40;;;;;;;6.22;0.90;;;;;;;24.79;35.59;101739.09;5006454;28;99421;-70
2022/07/24 07:18:07;;;;;;;2.72;0.80;;;;;;;24.81;35.54;101738.97;5006681;28;99001;-71
2022/07/24 07:20:35;;;;;;;2.28;0.60;;;;;;;24.79;35.36;101736.41;5008978;28;96880;-71
2022/07/24 07:23:01;;;;;;;3.10;0.80;;;;;;;23.74;37.07;101730.19;5009660;28;97429;-71
2022/07/24 07:25:27;;;;;;;2.00;0.60;;;;;;;24.59;36.27;101729.00;5006853;28;99203;-70
2022/07/24 07:27:54;;;;;;;0.77;0.63;;;;;;;25.01;35.36;101725.59;5007665;28;98906;-71
2022/07/24 07:30:21;;;;;;;8.20;1.35;;;;;;;25.28;34.65;101729.75;5007518;28;97945;-69
2022/07/24 07:32:47;;;;;;;1.60;0.77;;;;;;;25.49;34.37;101730.69;5006520;28;98574;-69
2022/07/24 07:35:15;;;;;;;1.02;0.60;;;;;;;25.44;33.69;101730.22;5005581;28;96970;-69
2022/07/24 07:37:45;;;;;;;3.28;0.68;;;;;;;25.75;33.47;101726.72;5008893;28;99364;-70
2022/07/24 07:40:12;;;;;;;4.40;1.00;;;;;;;25.85;33.20;101725.94;5010746;28;96902;-71
2022/07/24 07:42:38;;;;;;;0.63;0.63;;;;;;;25.70;32.92;101723.53;5010802;28;96996;-70
2022/07/24 07:45:06;;;;;;;1.27;0.77;;;;;;;25.19;33.53;101727.81;5007616;28;98898;-69
2022/07/24 07:47:33;;;;;;;4.10;0.90;;;;;;;25.44;33.38;101726.66;5008295;28;98950;-71
2022/07/24 07:49:59;;;;;;;1.15;0.85;;;;;;;25.23;33.47;101724.72;5007873;28;97193;-68
2022/07/24 07:52:25;;;;;;;3.83;0.95;;;;;;;25.52;33.26;101730.47;5005097;28;97033;-68
2022/07/24 07:54:53;;;;;;;2.67;0.52;;;;;;;25.60;33.67;101727.16;5006826;28;99335;-70
2022/07/24 07:57:20;;;;;;;1.63;0.60;;;;;;;25.67;32.24;101723.78;5006122;28;99662;-70
2022/07/24 07:59:46;;;;;;;3.75;0.90;;;;;;;25.85;32.48;101723.25;5009503;28;96730;-71
2022/07/24 08:02:12;;;;;;;1.45;0.73;;;;;;;26.15;32.14;101731.47;5007854;28;99270;-69
2022/07/24 08:04:39;;;;;;;2.38;0.77;;;;;;;26.19;31.33;101719.34;5004704;28;98913;-69
2022/07/24 08:07:05;;;;;;;3.28;0.68;;;;;;;26.56;31.23;101720.66;5009332;28;98970;-69
2022/07/24 08:09:35;;;;;;;0.73;0.50;;;;;;;26.42;30.92;101721.00;5007325;28;97697;-71
2022/07/24 08:12:03;;;;;;;0.75;0.50;;;;;;;26.51;31.13;101724.75;5008099;28;97020;-70
2022/07/24 08:14:30;;;;;;;1.13;0.50;;;;;;;26.10;30.38;101712.91;5002927;28;99835;-70
2022/07/24 08:16:56;;;;;;;1.00;0.60;;;;;;;26.17;30.86;101721.34;5008375;28;98969;-71
2022/07/24 08:19:23;;;;;;;1.35;0.63;;;;;;;25.67;30.90;101718.38;5009589;28;96804;-68
2022/07/24 08:21:49;;;;;;;0.80;0.30;;;;;;;25.47;31.90;101712.88;5007690;28;97876;-70
2022/07/24 08:24:20;;;;;;;2.28;0.40;;;;;;;25.76;31.07;101719.44;5000975;28;101897;-69
2022/07/24 08:26:46;;;;;;;0.70;0.43;;;;;;;26.01;31.05;101715.53;5011837;28;98795;-71
2022/07/24 08:29:14;;;;;;;2.47;0.80;;;;;;;26.21;30.86;101720.09;5012038;28;96958;-69
2022/07/24 08:31:41;;;;;;;0.30;0.30;;;;;;;26.42;30.68;101715.56;5012564;28;96922;-70
2022/07/24 08:34:07;;;;;;;1.50;0.38;;;;;;;26.26;29.35;101706.16;5013454;28;99319;-70
2022/07/24 08:36:34;;;;;;;0.85;0.47;;;;;;;26.39;30.63;101715.81;5015957;28;98891;-69
2022/07/24 08:39:00;;;;;;;4.93;0.40;;;;;;;26.64;30.34;101719.13;5010798;28;96748;-69
2022/07/24 08:41:32;;;;;;;2.53;0.50;;;;;;;26.85;29.69;101717.19;5014234;28;97286;-69
2022/07/24 08:43:59;;;;;;;1.02;0.80;;;;;;;26.64;30.04;101711.00;5008869;28;99410;-69
2022/07/24 08:46:27;;;;;;;1.55;0.50;;;;;;;27.02;29.43;101703.06;5015121;28;98849;-68
2022/07/24 08:48:55;;;;;;;2.25;0.75;;;;;;;26.73;29.75;101712.88;5004773;28;96918;-69
2022/07/24 08:51:22;;;;;;;0.95;0.45;;;;;;;26.81;28.93;101710.34;5004845;28;97305;-70
2022/07/24 08:53:49;;;;;;;0.88;0.40;;;;;;;26.73;29.06;101712.88;5010502;28;102585;-69
2022/07/24 08:56:16;;;;;;;1.15;0.40;;;;;;;26.76;29.35;101709.91;5009167;28;99435;-69
2022/07/24 08:58:43;;;;;;;2.30;0.50;;;;;;;26.90;29.59;101704.16;5010385;28;97153;-69
2022/07/24 09:01:10;;;;;;;3.35;0.40;;;;;;;27.19;29.57;101709.66;5011097;28;97315;-69
2022/07/24 09:03:43;;;;;;;2.30;0.60;;;;;;;27.05;29.61;101716.31;5008212;28;98986;-69
2022/07/24 09:06:10;;;;;;;0.45;0.40;;;;;;;27.16;29.46;101705.38;5008186;28;98026;-68
2022/07/24 09:08:36;;;;;;;1.58;0.50;;;;;;;27.08;29.80;101705.22;5008940;28;98196;-68
2022/07/24 09:11:04;;;;;;;0.75;0.57;;;;;;;27.05;29.74;101710.03;5007346;28;97483;-68
2022/07/24 09:14:29;;;;;;;1.10;0.50;;;;;;;27.29;29.41;101706.00;5010941;28;99593;-68
2022/07/24 09:16:23;;;;;;;1.08;0.70;;;;;;;27.55;29.21;101710.91;5008370;28;98992;-69
2022/07/24 09:18:52;;;;;;;2.47;1.30;;;;;;;28.10;28.66;101699.31;5006662;28;97726;-69
2022/07/24 09:21:19;;;;;;;2.03;0.80;;;;;;;28.18;28.37;101697.78;5009186;28;97220;-68
2022/07/24 09:23:48;;;;;;;1.20;0.70;;;;;;;27.92;28.75;101703.78;5011599;28;99257;-68
2022/07/24 09:26:15;;;;;;;1.13;0.63;;;;;;;27.80;28.60;101706.78;5009752;28;99216;-69
2022/07/24 09:28:50;;;;;;;1.65;0.80;;;;;;;27.82;28.09;101702.94;5012575;28;97129;-68
2022/07/24 09:31:17;;;;;;;3.45;0.60;;;;;;;27.67;28.36;101701.63;5010996;28;96893;-69
2022/07/24 09:33:47;;;;;;;1.05;0.70;;;;;;;27.87;28.21;101706.06;5010443;28;97727;-68
2022/07/24 09:36:17;;;;;;;1.33;0.70;;;;;;;27.85;28.51;101701.78;5008908;28;99670;-69
2022/07/24 09:38:49;;;;;;;1.23;0.57;;;;;;;27.94;27.26;101690.06;5011228;28;96864;-68
2022/07/24 09:41:21;;;;;;;1.05;0.60;;;;;;;27.99;27.69;101685.91;5012892;28;96867;-68
2022/07/24 09:43:58;;;;;;;1.83;0.70;;;;;;;27.90;28.56;101699.47;5014475;28;99060;-68
2022/07/24 09:46:26;;;;;;;2.15;0.68;;;;;;;27.80;28.94;101694.06;5007233;28;97753;-70
2022/07/24 09:48:56;;;;;;;1.98;0.65;;;;;;;27.90;28.79;101697.63;5010482;28;96728;-69
2022/07/24 09:51:25;;;;;;;1.38;0.57;;;;;;;28.11;28.50;101692.91;5010677;28;97301;-68
2022/07/24 09:53:54;;;;;;;1.02;0.70;;;;;;;28.13;27.98;101706.34;5007086;28;99803;-70
2022/07/24 09:56:21;;;;;;;1.98;0.60;;;;;;;28.27;28.11;101699.63;5009939;28;99045;-70
2022/07/24 09:58:51;;;;;;;1.52;0.60;;;;;;;27.86;28.68;101693.50;5009194;28;96880;-70
2022/07/24 10:01:20;;;;;;;4.38;0.60;;;;;;;27.97;28.83;101693.34;5008602;28;97699;-70
2022/07/24 10:03:47;;;;;;;0.60;0.55;;;;;;;28.05;28.96;101692.63;5006511;28;99190;-70
2022/07/24 10:06:17;;;;;;;1.15;0.70;;;;;;;28.30;28.97;101691.16;5008956;28;97990;-70
2022/07/24 10:08:46;;;;;;;0.60;0.60;;;;;;;28.61;28.75;101687.25;5010982;28;97298;-70
2022/07/24 10:11:13;;;;;;;2.35;0.70;;;;;;;28.16;28.19;101694.38;5009648;28;96781;-70
2022/07/24 10:13:41;;;;;;;1.05;0.75;;;;;;;28.20;28.24;101696.63;5007611;28;100511;-70
2022/07/24 10:16:28;;;;;;;1.02;0.80;;;;;;;28.08;28.60;101678.75;5006691;28;99329;-73
2022/07/24 10:18:56;;;;;;;1.23;0.80;;;;;;;28.50;28.21;101679.25;5009489;28;97265;-70
2022/07/24 10:21:25;;;;;;;2.03;0.70;;;;;;;28.36;28.36;101679.72;5010140;28;97564;-70
2022/07/24 10:24:11;;;;;;;2.80;1.08;;;;;;;28.18;27.99;101679.63;5008150;28;99579;-73
2022/07/24 10:26:40;;;;;;;2.75;0.90;;;;;;;28.24;28.50;101675.44;5006332;28;98943;-70
2022/07/24 10:29:10;;;;;;;1.25;0.82;;;;;;;28.28;28.39;101671.47;5008538;28;98524;-70
2022/07/24 10:31:38;;;;;;;2.60;1.30;;;;;;;28.21;28.44;101673.03;5010465;28;96829;-71
2022/07/24 10:34:10;;;;;;;3.38;0.95;;;;;;;28.49;28.09;101663.94;5006732;28;99194;-71
2022/07/24 10:36:44;;;;;;;1.25;1.05;;;;;;;28.47;28.29;101658.66;5013413;28;98843;-71
2022/07/24 10:39:20;;;;;;;1.35;0.90;;;;;;;28.33;28.71;101661.00;5009073;28;97196;-70
2022/07/24 10:42:00;;;;;;;1.65;1.00;;;;;;;27.67;28.73;101653.63;5008707;28;97216;-71
2022/07/24 10:44:27;;;;;;;2.38;1.42;;;;;;;28.05;28.40;101654.59;5008473;28;99425;-71
2022/07/24 10:47:03;;;;;;;1.77;1.00;;;;;;;28.12;27.83;101653.00;5010639;28;100646;-72
2022/07/24 10:49:47;;;;;;;2.33;1.00;;;;;;;28.12;27.96;101672.00;5014220;28;96747;-71
2022/07/24 10:52:27;;;;;;;2.05;0.90;;;;;;;27.84;28.26;101668.31;5006524;28;96781;-70
2022/07/24 10:55:30;;;;;;;3.55;1.00;;;;;;;28.24;28.19;101660.00;5000120;28;98780;-70
2022/07/24 10:57:59;;;;;;;0.82;0.77;;;;;;;28.36;28.14;101657.97;5007660;28;99169;-70
2022/07/24 11:00:31;;;;;;;2.42;0.80;;;;;;;28.27;28.03;101658.88;5006878;28;96835;-70
2022/07/24 11:03:01;;;;;;;2.38;1.05;;;;;;;28.20;28.40;101655.88;5008943;28;96738;-71
2022/07/24 11:05:31;;;;;;;2.30;1.25;;;;;;;28.41;28.24;101656.53;5008035;28;99350;-72
2022/07/24 11:08:36;;;;;;;2.67;0.90;;;;;;;28.60;27.66;101650.19;5010965;28;98804;-71
2022/07/24 11:11:09;;;;;;;0.88;0.88;;;;;;;28.36;27.88;101647.09;5011862;28;96691;-70
2022/07/24 11:13:50;;;;;;;1.83;1.02;;;;;;;28.21;27.95;101646.72;5014398;28;96914;-71
2022/07/24 11:16:22;;;;;;;1.10;1.00;;;;;;;28.09;28.23;101643.25;5004864;28;100288;-71
2022/07/24 11:19:29;;;;;;;1.63;1.10;;;;;;;28.43;28.27;101645.50;5007868;28;100123;-71
2022/07/24 11:22:17;;;;;;;;;;;;;;;28.63;27.97;101644.41;5003726;28;97013;-70
2022/07/24 11:25:18;;;;;;;4.63;1.60;;;;;;;28.91;27.42;101643.47;5006088;28;97223;-71
2022/07/24 11:27:52;;;;;;;2.80;1.52;;;;;;;28.65;27.62;101636.97;4943622;28;99502;-70